createdAt,value
2019-04-03T00:01:34.411Z,2.40
2019-04-03T00:04:04.664Z,2.10
2019-04-03T00:06:33.576Z,2.10
2019-04-03T00:09:06.145Z,2.20
2019-04-03T00:11:34.572Z,2.27
2019-04-03T00:14:02.696Z,2.20
2019-04-03T00:16:30.861Z,1.90
2019-04-03T00:18:59.081Z,2.13
2019-04-03T00:21:27.222Z,2.30
2019-04-03T00:23:55.338Z,2.60
2019-04-03T00:26:23.481Z,2.20
2019-04-03T00:28:52.308Z,2.63
2019-04-03T00:31:22.953Z,2.50
2019-04-03T00:33:51.658Z,2.40
2019-04-03T00:36:21.624Z,2.80
2019-04-03T00:38:50.646Z,2.70
2019-04-03T00:41:18.792Z,2.50
2019-04-03T00:43:47.064Z,2.40
2019-04-03T00:46:15.331Z,3.00
2019-04-03T00:48:43.503Z,2.67
2019-04-03T00:51:11.762Z,2.57
2019-04-03T00:53:39.908Z,2.20
2019-04-03T00:56:08.060Z,2.80
2019-04-03T00:58:37.036Z,2.53
2019-04-03T01:01:05.941Z,2.37
2019-04-03T01:03:34.141Z,2.53
2019-04-03T01:06:02.324Z,2.90
2019-04-03T01:08:30.613Z,2.87
2019-04-03T01:11:00.327Z,2.57
2019-04-03T01:13:29.758Z,2.60
2019-04-03T01:15:58.409Z,2.57
2019-04-03T01:18:26.626Z,2.77
2019-04-03T01:20:54.816Z,2.53
2019-04-03T01:23:22.942Z,2.67
2019-04-03T01:25:51.060Z,2.57
2019-04-03T01:28:19.257Z,2.63
2019-04-03T01:30:47.380Z,2.90
2019-04-03T01:33:16.432Z,2.70
2019-04-03T01:35:47.125Z,2.40
2019-04-03T01:38:15.245Z,2.27
2019-04-03T01:40:43.445Z,2.10
2019-04-03T01:43:11.549Z,2.30
2019-04-03T01:45:39.677Z,2.40
2019-04-03T01:48:07.881Z,2.80
2019-04-03T01:50:36.016Z,2.53
2019-04-03T01:53:04.348Z,2.40
2019-04-03T01:55:34.102Z,2.70
2019-04-03T01:58:02.353Z,2.67
2019-04-03T02:00:30.548Z,3.07
2019-04-03T02:03:01.547Z,2.97
2019-04-03T02:05:28.520Z,3.00
2019-04-03T02:07:56.699Z,2.70
2019-04-03T02:10:25.261Z,2.50
2019-04-03T02:12:53.454Z,3.17
2019-04-03T02:15:22.256Z,2.93
2019-04-03T02:17:50.646Z,2.77
2019-04-03T02:20:18.964Z,2.40
2019-04-03T02:22:47.137Z,2.93
2019-04-03T02:25:15.262Z,2.13
2019-04-03T02:27:43.503Z,2.47
2019-04-03T02:30:13.494Z,2.60
2019-04-03T02:32:42.120Z,3.13
2019-04-03T02:35:10.314Z,2.80
2019-04-03T02:37:38.495Z,3.03
2019-04-03T02:40:06.671Z,3.57
2019-04-03T02:42:34.880Z,3.03
2019-04-03T02:45:03.368Z,3.00
2019-04-03T02:47:33.525Z,3.23
2019-04-03T02:50:01.630Z,3.37
2019-04-03T02:52:29.866Z,3.37
2019-04-03T02:54:58.249Z,3.10
2019-04-03T02:57:26.534Z,3.00
2019-04-03T02:59:57.818Z,3.83
2019-04-03T03:02:24.575Z,3.60
2019-04-03T03:04:54.655Z,3.70
2019-04-03T03:07:22.720Z,3.33
2019-04-03T03:09:52.090Z,3.70
2019-04-03T03:12:20.448Z,3.30
2019-04-03T03:14:48.698Z,3.10
2019-04-03T03:17:16.986Z,3.73
2019-04-03T03:19:45.913Z,3.80
2019-04-03T03:22:16.861Z,3.70
2019-04-03T03:24:44.333Z,3.53
2019-04-03T03:27:12.537Z,4.27
2019-04-03T03:29:40.828Z,3.87
2019-04-03T03:32:17.721Z,3.97
2019-04-03T03:34:55.083Z,4.00
2019-04-03T03:37:12.252Z,3.80
2019-04-03T03:39:42.697Z,3.83
2019-04-03T03:42:09.101Z,4.37
2019-04-03T03:44:37.314Z,4.57
2019-04-03T03:47:05.951Z,4.70
2019-04-03T03:49:35.609Z,3.70
2019-04-03T03:52:05.554Z,4.47
2019-04-03T03:54:34.663Z,4.90
2019-04-03T03:57:04.739Z,5.00
2019-04-03T03:59:33.944Z,5.07
2019-04-03T04:02:05.281Z,4.87
2019-04-03T04:04:34.938Z,5.20
2019-04-03T04:07:04.539Z,5.07
2019-04-03T04:09:33.430Z,5.13
2019-04-03T04:12:04.914Z,4.50
2019-04-03T04:14:31.822Z,4.17
2019-04-03T04:17:00.556Z,5.10
2019-04-03T04:19:30.686Z,4.43
2019-04-03T04:21:59.104Z,5.00
2019-04-03T04:24:28.095Z,4.50
2019-04-03T04:26:57.093Z,4.57
2019-04-03T04:29:25.208Z,3.90
2019-04-03T04:31:53.515Z,4.50
2019-04-03T04:34:21.724Z,4.20
2019-04-03T04:36:49.996Z,4.63
2019-04-03T04:39:18.327Z,4.20
2019-04-03T04:41:46.513Z,4.90
2019-04-03T04:44:15.212Z,4.70
2019-04-03T04:46:44.535Z,5.00
2019-04-03T04:49:13.069Z,4.20
2019-04-03T04:51:41.384Z,4.27
2019-04-03T04:54:09.558Z,3.87
2019-04-03T04:56:38.410Z,4.03
2019-04-03T04:59:06.788Z,4.03
2019-04-03T05:01:34.970Z,3.90
2019-04-03T05:04:03.185Z,4.53
2019-04-03T05:06:31.325Z,3.80
2019-04-03T05:09:06.379Z,4.77
2019-04-03T05:11:34.483Z,4.77
2019-04-03T05:14:02.608Z,4.60
2019-04-03T05:16:30.718Z,4.80
2019-04-03T05:19:09.053Z,4.43
2019-04-03T05:21:29.167Z,5.30
2019-04-03T05:24:10.130Z,4.37
2019-04-03T05:26:27.432Z,5.13
2019-04-03T05:28:57.573Z,4.33
2019-04-03T05:31:25.488Z,5.20
2019-04-03T05:33:53.670Z,4.50
2019-04-03T05:36:21.787Z,5.23
2019-04-03T05:38:52.488Z,4.73
2019-04-03T05:41:20.072Z,4.97
2019-04-03T05:43:48.176Z,4.87
2019-04-03T05:46:19.050Z,4.57
2019-04-03T05:48:48.042Z,4.60
2019-04-03T05:51:15.993Z,5.00
2019-04-03T05:53:44.336Z,4.00
2019-04-03T05:56:12.748Z,4.13
2019-04-03T05:58:53.733Z,4.70
2019-04-03T06:01:11.795Z,4.77
2019-04-03T06:03:44.700Z,5.03
2019-04-03T06:06:09.916Z,4.27
2019-04-03T06:08:38.037Z,4.90
2019-04-03T06:11:08.847Z,5.20
2019-04-03T06:13:36.013Z,5.40
2019-04-03T06:16:04.193Z,5.33
2019-04-03T06:18:32.534Z,4.93
2019-04-03T06:21:00.698Z,4.77
2019-04-03T06:23:28.834Z,4.80
2019-04-03T06:25:57.331Z,4.90
2019-04-03T06:28:25.688Z,4.67
2019-04-03T06:30:55.593Z,4.90
2019-04-03T06:33:23.921Z,3.83
2019-04-03T06:35:53.235Z,3.83
2019-04-03T06:38:23.978Z,3.80
2019-04-03T06:40:51.780Z,4.17
2019-04-03T06:43:20.506Z,4.47
2019-04-03T06:45:49.045Z,3.67
2019-04-03T06:48:17.501Z,4.00
2019-04-03T06:50:45.907Z,4.03
2019-04-03T06:53:14.032Z,3.67
2019-04-03T06:55:42.167Z,4.20
2019-04-03T06:58:11.608Z,4.10
2019-04-03T07:00:40.196Z,4.00
2019-04-03T07:03:08.436Z,4.00
2019-04-03T07:05:36.580Z,4.80
2019-04-03T07:08:05.921Z,3.57
2019-04-03T07:10:36.601Z,3.30
2019-04-03T07:13:05.185Z,3.47
2019-04-03T07:15:33.308Z,3.60
2019-04-03T07:18:03.384Z,3.77
2019-04-03T07:20:31.516Z,4.10
2019-04-03T07:22:59.685Z,4.27
2019-04-03T07:25:28.078Z,4.70
2019-04-03T07:27:56.276Z,3.87
2019-04-03T07:30:24.576Z,4.40
2019-04-03T07:32:52.773Z,3.87
2019-04-03T07:35:20.881Z,3.50
2019-04-03T07:37:51.067Z,3.03
2019-04-03T07:40:20.949Z,3.47
2019-04-03T07:42:49.302Z,3.67
2019-04-03T07:45:17.432Z,3.27
2019-04-03T07:47:45.692Z,3.13
2019-04-03T07:50:14.138Z,2.90
2019-04-03T07:52:42.717Z,2.60
2019-04-03T07:55:11.219Z,2.87
2019-04-03T07:57:41.421Z,2.33
2019-04-03T08:00:10.156Z,2.70
2019-04-03T08:02:38.337Z,2.90
2019-04-03T08:05:07.457Z,2.70
2019-04-03T08:07:35.559Z,2.67
2019-04-03T08:10:04.760Z,2.60
2019-04-03T08:12:35.707Z,2.90
2019-04-03T08:15:02.788Z,2.60
2019-04-03T08:17:30.896Z,3.00
2019-04-03T08:19:59.021Z,2.23
2019-04-03T08:22:27.128Z,2.27
2019-04-03T08:24:55.661Z,2.37
2019-04-03T08:27:25.863Z,2.63
2019-04-03T08:29:55.341Z,2.10
2019-04-03T08:32:24.225Z,2.30
2019-04-03T08:34:52.456Z,2.30
2019-04-03T08:37:29.615Z,2.47
2019-04-03T08:39:50.945Z,2.30
2019-04-03T08:42:19.281Z,2.40
2019-04-03T08:44:47.489Z,1.80
2019-04-03T08:47:15.585Z,2.20
2019-04-03T08:49:43.837Z,2.43
2019-04-03T08:52:14.377Z,2.10
2019-04-03T08:54:42.699Z,2.30
2019-04-03T08:57:10.886Z,2.40
2019-04-03T08:59:39.137Z,2.10
2019-04-03T09:02:09.208Z,1.97
2019-04-03T09:04:37.883Z,2.10
2019-04-03T09:07:06.508Z,1.63
2019-04-03T09:09:35.640Z,2.10
2019-04-03T09:12:04.002Z,1.90
2019-04-03T09:14:32.554Z,1.70
2019-04-03T09:17:02.569Z,2.40
2019-04-03T09:19:30.936Z,2.10
2019-04-03T09:21:59.476Z,2.00
2019-04-03T09:24:29.654Z,2.17
2019-04-03T09:26:57.650Z,2.03
2019-04-03T09:29:25.849Z,2.60
2019-04-03T09:31:55.974Z,2.67
2019-04-03T09:34:23.971Z,2.00
2019-04-03T09:36:52.467Z,2.60
2019-04-03T09:39:20.801Z,2.43
2019-04-03T09:41:50.962Z,2.90
2019-04-03T09:44:19.054Z,2.97
2019-04-03T09:46:47.470Z,2.73
2019-04-03T09:49:15.697Z,2.60
2019-04-03T09:51:44.412Z,2.73
2019-04-03T09:54:12.848Z,3.27
2019-04-03T09:56:57.456Z,2.50
2019-04-03T09:59:10.862Z,3.00
2019-04-03T10:01:39.083Z,3.00
2019-04-03T10:04:07.398Z,3.10
2019-04-03T10:06:35.676Z,2.47
2019-04-03T10:09:05.640Z,2.63
2019-04-03T10:11:33.759Z,2.50
2019-04-03T10:14:01.852Z,2.40
2019-04-03T10:16:30.361Z,2.73
2019-04-03T10:18:58.539Z,2.50
2019-04-03T10:21:26.776Z,2.73
2019-04-03T10:23:55.780Z,3.30
2019-04-03T10:26:23.939Z,3.10
2019-04-03T10:28:52.077Z,3.30
2019-04-03T10:31:23.386Z,3.23
2019-04-03T10:33:50.294Z,3.13
2019-04-03T10:36:18.664Z,3.33
2019-04-03T10:38:47.017Z,3.27
2019-04-03T10:41:17.205Z,3.47
2019-04-03T10:43:45.412Z,3.90
2019-04-03T10:46:13.597Z,4.10
2019-04-03T10:48:41.705Z,3.90
2019-04-03T10:51:10.124Z,4.13
2019-04-03T10:53:38.726Z,3.60
2019-04-03T10:56:07.944Z,3.60
2019-04-03T10:58:38.101Z,3.90
2019-04-03T11:01:06.033Z,3.60
2019-04-03T11:03:34.246Z,4.20
2019-04-03T11:06:02.501Z,3.47
2019-04-03T11:08:30.639Z,3.87
2019-04-03T11:10:58.928Z,3.50
2019-04-03T11:13:27.116Z,4.10
2019-04-03T11:15:55.230Z,4.20
2019-04-03T11:18:23.865Z,4.00
2019-04-03T11:20:52.127Z,4.20
2019-04-03T11:23:35.778Z,3.67
2019-04-03T11:25:50.258Z,3.40
2019-04-03T11:28:18.613Z,3.57
2019-04-03T11:30:46.771Z,4.00
2019-04-03T11:33:14.981Z,3.53
2019-04-03T11:35:43.579Z,3.90
2019-04-03T11:38:15.536Z,3.20
2019-04-03T11:40:41.817Z,3.90
2019-04-03T11:43:10.067Z,3.73
2019-04-03T11:45:38.559Z,3.73
2019-04-03T11:48:06.918Z,3.67
2019-04-03T11:50:35.144Z,3.90
2019-04-03T11:53:07.043Z,3.50
2019-04-03T11:55:33.487Z,3.40
2019-04-03T11:58:01.822Z,2.80
2019-04-03T12:00:32.038Z,2.87
2019-04-03T12:03:00.275Z,2.93
2019-04-03T12:05:28.441Z,3.20
2019-04-03T12:07:57.390Z,2.90
2019-04-03T12:10:26.226Z,3.00
2019-04-03T12:12:54.869Z,2.97
2019-04-03T12:15:23.619Z,2.53
2019-04-03T12:17:51.947Z,2.60
2019-04-03T12:20:20.527Z,3.40
2019-04-03T12:22:48.761Z,2.73
2019-04-03T12:25:17.284Z,2.90
2019-04-03T12:27:46.511Z,2.70
2019-04-03T12:30:15.125Z,3.03
2019-04-03T12:32:48.276Z,3.03
2019-04-03T12:35:14.335Z,2.80
2019-04-03T12:37:42.527Z,3.50
2019-04-03T12:40:10.800Z,3.00
2019-04-03T12:42:39.013Z,3.70
2019-04-03T12:45:08.408Z,3.70
2019-04-03T12:47:36.861Z,3.63
2019-04-03T12:50:06.327Z,3.83
2019-04-03T12:52:34.524Z,3.57
2019-04-03T12:55:02.917Z,3.40
2019-04-03T12:57:33.389Z,3.53
2019-04-03T13:00:01.012Z,3.60
2019-04-03T13:02:29.219Z,3.53
2019-04-03T13:05:00.282Z,3.60
2019-04-03T13:07:28.278Z,3.40
2019-04-03T13:09:56.829Z,3.93
2019-04-03T13:12:27.281Z,3.93
2019-04-03T13:14:55.193Z,4.00
2019-04-03T13:17:23.535Z,4.30
2019-04-03T13:19:51.932Z,3.80
2019-04-03T13:22:20.105Z,3.50
2019-04-03T13:24:48.973Z,3.27
2019-04-03T13:27:17.187Z,3.83
2019-04-03T13:29:45.322Z,2.87
2019-04-03T13:32:16.217Z,3.07
2019-04-03T13:34:43.323Z,2.97
2019-04-03T13:37:11.576Z,2.67
2019-04-03T13:39:39.778Z,3.10
2019-04-03T13:42:08.374Z,3.00
2019-04-03T13:44:36.556Z,2.80
2019-04-03T13:47:06.105Z,3.57
2019-04-03T13:49:34.568Z,2.80
2019-04-03T13:52:08.062Z,3.10
2019-04-03T13:54:32.594Z,3.00
2019-04-03T13:57:01.052Z,3.07
2019-04-03T13:59:29.328Z,2.90
2019-04-03T14:01:57.545Z,2.40
2019-04-03T14:04:25.739Z,2.63
2019-04-03T14:06:53.985Z,3.40
2019-04-03T14:09:22.165Z,2.83
2019-04-03T14:11:50.370Z,2.87
2019-04-03T14:14:18.465Z,2.80
2019-04-03T14:16:46.718Z,3.07
2019-04-03T14:19:15.418Z,3.27
2019-04-03T14:21:44.090Z,3.50
2019-04-03T14:24:12.710Z,3.00
2019-04-03T14:26:41.002Z,2.70
2019-04-03T14:29:09.282Z,2.80
2019-04-03T14:31:38.187Z,2.70
2019-04-03T14:34:06.530Z,2.80
2019-04-03T14:36:34.755Z,3.10
2019-04-03T14:39:07.158Z,3.03
2019-04-03T14:41:35.904Z,2.50
2019-04-03T14:44:06.960Z,3.20
2019-04-03T14:46:34.417Z,2.87
2019-04-03T14:49:03.229Z,2.73
2019-04-03T14:51:31.933Z,2.73
2019-04-03T14:54:00.040Z,2.90
2019-04-03T14:56:28.220Z,2.90
2019-04-03T14:58:58.557Z,3.00
2019-04-03T15:01:26.579Z,3.07
2019-04-03T15:03:54.696Z,2.90
2019-04-03T15:06:23.451Z,2.60
2019-04-03T15:08:53.952Z,2.40
2019-04-03T15:11:21.975Z,2.60
2019-04-03T15:13:51.076Z,2.33
2019-04-03T15:16:19.841Z,2.60
2019-04-03T15:18:47.954Z,2.10
2019-04-03T15:21:16.535Z,2.20
2019-04-03T15:23:45.324Z,2.30
2019-04-03T15:26:13.597Z,2.27
2019-04-03T15:28:41.948Z,2.00
2019-04-03T15:31:10.115Z,2.13
2019-04-03T15:33:38.221Z,1.90
2019-04-03T15:36:06.714Z,2.40
2019-04-03T15:38:35.136Z,2.20
2019-04-03T15:41:03.494Z,2.63
2019-04-03T15:43:31.720Z,2.40
2019-04-03T15:45:59.829Z,1.80
2019-04-03T15:48:27.937Z,1.90
2019-04-03T15:50:56.076Z,2.10
2019-04-03T15:53:25.062Z,2.10
2019-04-03T15:55:53.449Z,2.53
2019-04-03T15:58:22.845Z,2.20
2019-04-03T16:00:51.567Z,2.30
2019-04-03T16:03:19.671Z,2.47
2019-04-03T16:05:47.801Z,2.43
2019-04-03T16:08:16.307Z,2.30
2019-04-03T16:10:44.454Z,2.90
2019-04-03T16:13:15.581Z,2.63
2019-04-03T16:15:42.484Z,2.40
2019-04-03T16:18:10.619Z,2.53
2019-04-03T16:20:39.062Z,2.57
2019-04-03T16:23:07.446Z,2.67
2019-04-03T16:25:35.846Z,2.57
2019-04-03T16:28:05.202Z,3.17
2019-04-03T16:30:34.106Z,2.90
2019-04-03T16:33:04.287Z,2.30
2019-04-03T16:35:32.432Z,2.57
2019-04-03T16:38:00.654Z,2.80
2019-04-03T16:40:31.222Z,2.83
2019-04-03T16:42:58.992Z,2.87
2019-04-03T16:45:27.154Z,2.70
2019-04-03T16:47:55.805Z,2.70
2019-04-03T16:50:26.216Z,2.80
2019-04-03T16:52:54.226Z,2.93
2019-04-03T16:55:22.810Z,2.83
2019-04-03T16:57:53.491Z,2.83
2019-04-03T17:00:21.748Z,3.60
2019-04-03T17:02:49.967Z,3.27
2019-04-03T17:05:18.516Z,2.50
2019-04-03T17:07:47.328Z,2.63
2019-04-03T17:10:16.272Z,2.17
2019-04-03T17:12:45.883Z,1.80
2019-04-03T17:15:14.408Z,1.30
2019-04-03T17:17:43.118Z,1.40
2019-04-03T17:20:13.012Z,1.47
2019-04-03T17:22:41.839Z,1.30
2019-04-03T17:25:11.077Z,0.83
2019-04-03T17:27:39.339Z,0.87
2019-04-03T17:30:09.345Z,0.80
2019-04-03T17:32:37.687Z,0.80
2019-04-03T17:35:07.752Z,1.00
2019-04-03T17:37:36.798Z,1.00
2019-04-03T17:40:06.670Z,1.07
2019-04-03T17:42:34.919Z,1.30
2019-04-03T17:45:03.500Z,1.27
2019-04-03T17:47:31.637Z,1.40
2019-04-03T17:49:59.889Z,1.60
2019-04-03T17:52:28.115Z,1.90
2019-04-03T17:54:56.253Z,1.43
2019-04-03T17:57:24.429Z,2.03
2019-04-03T17:59:52.802Z,1.83
2019-04-03T18:02:20.933Z,1.67
2019-04-03T18:04:51.134Z,1.90
2019-04-03T18:07:18.964Z,1.60
2019-04-03T18:09:47.068Z,1.60
2019-04-03T18:12:15.947Z,1.70
2019-04-03T18:14:45.020Z,1.40
2019-04-03T18:17:13.223Z,1.77
2019-04-03T18:19:41.825Z,1.50
2019-04-03T18:22:10.536Z,1.67
2019-04-03T18:24:39.037Z,1.67
2019-04-03T18:27:07.164Z,1.50
2019-04-03T18:29:37.296Z,1.53
2019-04-03T18:32:05.130Z,1.80
2019-04-03T18:34:33.271Z,1.73
2019-04-03T18:37:01.822Z,2.10
2019-04-03T18:39:31.368Z,2.07
2019-04-03T18:41:59.524Z,2.10
2019-04-03T18:44:30.144Z,2.07
2019-04-03T18:46:57.619Z,1.70
2019-04-03T18:49:25.940Z,2.20
2019-04-03T18:51:54.273Z,2.70
2019-04-03T18:54:22.487Z,2.60
2019-04-03T18:56:50.647Z,1.93
2019-04-03T18:59:18.898Z,2.30
2019-04-03T19:01:47.311Z,2.50
2019-04-03T19:04:15.620Z,2.10
2019-04-03T19:06:44.788Z,2.30
2019-04-03T19:09:13.903Z,1.80
2019-04-03T19:11:42.196Z,1.90
2019-04-03T19:14:10.323Z,1.90
2019-04-03T19:16:43.942Z,3.73
2019-04-03T19:19:08.578Z,2.00
2019-04-03T19:21:36.693Z,2.20
2019-04-03T19:24:04.821Z,1.83
2019-04-03T19:26:34.191Z,2.10
2019-04-03T19:29:04.760Z,1.63
2019-04-03T19:31:34.165Z,1.90
2019-04-03T19:34:02.384Z,1.90
2019-04-03T19:36:30.641Z,2.27
2019-04-03T19:38:58.803Z,2.30
2019-04-03T19:41:27.004Z,2.27
2019-04-03T19:43:55.144Z,2.07
2019-04-03T19:46:23.453Z,2.37
2019-04-03T19:48:51.656Z,2.10
2019-04-03T19:51:19.785Z,2.30
2019-04-03T19:53:58.639Z,2.70
2019-04-03T19:56:17.920Z,2.80
2019-04-03T19:58:46.118Z,2.70
2019-04-03T20:01:14.372Z,2.57
2019-04-03T20:03:44.047Z,2.93
2019-04-03T20:06:12.778Z,2.70
2019-04-03T20:08:40.921Z,2.70
2019-04-03T20:11:09.062Z,2.70
2019-04-03T20:13:39.493Z,2.50
2019-04-03T20:16:07.393Z,2.80
2019-04-03T20:18:35.570Z,2.97
2019-04-03T20:21:04.382Z,3.03
2019-04-03T20:23:32.641Z,2.93
2019-04-03T20:26:00.751Z,3.00
2019-04-03T20:28:28.982Z,2.90
2019-04-03T20:30:57.264Z,2.90
2019-04-03T20:33:25.404Z,3.53
2019-04-03T20:35:53.521Z,3.50
2019-04-03T20:38:21.626Z,3.47
2019-04-03T20:40:49.751Z,3.30
2019-04-03T20:43:17.855Z,3.53
2019-04-03T20:45:45.989Z,3.50
2019-04-03T20:48:14.432Z,3.53
2019-04-03T20:50:42.551Z,3.90
2019-04-03T20:53:10.727Z,3.83
2019-04-03T20:55:38.888Z,3.63
2019-04-03T20:58:07.069Z,3.90
2019-04-03T21:00:35.213Z,4.10
2019-04-03T21:03:03.324Z,3.77
2019-04-03T21:05:31.535Z,4.60
2019-04-03T21:07:59.636Z,4.53
2019-04-03T21:10:27.765Z,4.10
2019-04-03T21:12:55.898Z,4.60
2019-04-03T21:15:24.073Z,4.10
2019-04-03T21:17:52.183Z,4.43
2019-04-03T21:20:21.924Z,4.40
2019-04-03T21:22:50.161Z,4.57
2019-04-03T21:25:18.352Z,4.43
2019-04-03T21:27:46.464Z,3.67
2019-04-03T21:30:14.871Z,4.30
2019-04-03T21:32:42.976Z,4.63
2019-04-03T21:35:11.192Z,4.10
2019-04-03T21:37:40.541Z,4.40
2019-04-03T21:40:08.992Z,3.80
2019-04-03T21:42:37.115Z,4.13
2019-04-03T21:45:07.531Z,4.07
2019-04-03T21:47:35.826Z,4.50
2019-04-03T21:50:05.416Z,4.20
2019-04-03T21:52:33.555Z,4.70
2019-04-03T21:55:04.696Z,4.37
2019-04-03T21:57:31.610Z,3.70
2019-04-03T21:59:59.712Z,4.53
2019-04-03T22:02:27.943Z,4.17
2019-04-03T22:04:56.057Z,4.37
2019-04-03T22:07:24.189Z,4.40
2019-04-03T22:09:52.300Z,4.43
2019-04-03T22:12:20.526Z,4.43
2019-04-03T22:14:48.977Z,4.20
2019-04-03T22:17:17.103Z,4.70
2019-04-03T22:19:45.207Z,4.33
2019-04-03T22:22:13.336Z,4.80
2019-04-03T22:24:41.450Z,4.60
2019-04-03T22:27:11.350Z,4.87
2019-04-03T22:29:39.402Z,5.03
2019-04-03T22:32:07.525Z,5.40
2019-04-03T22:34:35.696Z,6.23
2019-04-03T22:37:04.550Z,6.87
2019-04-03T22:39:32.812Z,8.63
2019-04-03T22:42:00.919Z,9.07
2019-04-03T22:44:29.058Z,10.30
2019-04-03T22:46:57.240Z,10.10
2019-04-03T22:49:25.732Z,10.63
2019-04-03T22:51:53.843Z,11.13
2019-04-03T22:54:22.008Z,9.97
2019-04-03T22:56:50.127Z,10.77
2019-04-03T22:59:18.252Z,9.57
2019-04-03T23:01:46.374Z,9.97
2019-04-03T23:04:14.867Z,8.87
2019-04-03T23:06:42.983Z,9.10
2019-04-03T23:09:11.121Z,9.00
2019-04-03T23:11:39.225Z,8.17
2019-04-03T23:14:07.571Z,8.60
2019-04-03T23:16:35.865Z,8.77
2019-04-03T23:19:04.001Z,8.70
2019-04-03T23:21:32.110Z,7.90
2019-04-03T23:24:00.269Z,7.57
2019-04-03T23:26:31.751Z,7.43
2019-04-03T23:28:58.280Z,7.47
2019-04-03T23:31:26.387Z,8.40
2019-04-03T23:33:54.528Z,8.07
2019-04-03T23:36:23.578Z,8.47
2019-04-03T23:38:51.841Z,8.77
2019-04-03T23:41:19.995Z,7.30
2019-04-03T23:43:48.169Z,8.57
2019-04-03T23:46:16.299Z,7.87
2019-04-03T23:48:44.472Z,8.30
2019-04-03T23:51:22.606Z,8.10
2019-04-03T23:53:42.456Z,8.27
2019-04-03T23:56:10.635Z,7.87
2019-04-03T23:58:39.947Z,8.20
